Terminal Aerodrome Forecast
Issued by NWS Cleveland, OH

Home | Current Version | Previous Version | Graphics & Text | Print | Product List | Glossary On
Versions: 1 2 3 4 5 6 7 8 9 10 11 12 13 14 15 16 17 18 19 20 21 22 23
000
FTUS41 KCLE 202234 AAA
TAFYNG
TAF AMD
KYNG 202234Z 2023/2118 20006KT P6SM OVC035
     FM210200 20005KT 4SM BR OVC012
      TEMPO 2110/2114 2SM BR OVC006
     FM211500 20008KT 6SM BR OVC020=

USA.gov is the U.S. government's official web portal to all federal, state and local government web resources and services.